Pagina principale
METAR-TAF:

METAR-TAF

Aeroporti :

Cerklje ob Krki, Slovenia

latitudine: 45-53-59N, longitudine: 15-30-55E, altezza: 157 m

Osservazione

Il bollettino è stato emesso 12 minuti fa, alle 17:30 UTC
Vento 3 kt da sud/sud-est
Temperature 14°C
Umidità 82%
Pressione 1016 hPa
Visibilità 10 km o più
nessuna nube inferiore a 1500 m e nessun cumulonembo

METAR: LJCE 311730Z 15003KT CAVOK 14/11 Q1016 RMK BLU

Ora: 19:42 (17:42 UTC)

Previsione

Il bollettino è stato emesso 42 minuti fa, alle 17:00 UTC
Previsione valida dal 31 alle 18 UTC al 01 alle 03 UTC
Vento 2 kt da direzioni variabili
Visibilità 10 km o più
Poco nuvoloso ad un'altezza di 4000 ft
Temporaneamente
dal 31 alle 18 UTC al 01 alle 03 UTC
pioggia debole

TAF: LJCE 311700Z 3118/0103 VRB02KT 9999 FEW040 TEMPO 3118/0103 -RA

Osservazioni e previsioni meteorologiche di più di 4000 aeroporti (messaggi METAR e TAF).

Le stazioni disponibili sono rappresentate dai dischi gialli e rossi sulla carta.

Puntare il mouse per vedere il nome della stazione.

Clicca sopra per visualizzare le osservazioni e previsioni meteorologiche.

Per cambiare la mappa : fare clic sui pulsanti verdi con una croce nera per ingrandire, il pulsante verde con un trattino per diminuire, o sulla freccia verde per le mappe adiacenti.


METAR-TAF: